Time;durP1;ratioP1;P1;durP2;ratioP2;P2;SDS_P1;SDS_P2;PMS_P1;PMS_P2;Temp;Humidity;BMP_temperature;BMP_pressure;BME280_temperature;BME280_humidity;BME280_pressure;Samples;Min_cycle;Max_cycle;Signal;HPM_P1;HPM_P2
2023/07/24 00:05:39;;;;;;;5.03;3.67;;;17.40;99.90;;;;;;2609246;54;20134;-69
2023/07/24 00:11:26;;;;;;;15.20;4.10;;;17.40;99.90;;;;;;2610207;54;20146;-69
2023/07/24 00:17:14;;;;;;;6.57;4.80;;;17.30;99.90;;;;;;2614041;54;20130;-69
2023/07/24 00:26:24;;;;;;;8.10;4.13;;;17.20;99.90;;;;;;2613293;54;20535;-68
2023/07/24 00:32:12;;;;;;;5.60;3.53;;;17.20;99.90;;;;;;2610855;54;20133;-68
2023/07/24 00:37:59;;;;;;;6.60;4.43;;;17.50;99.90;;;;;;2610692;54;20393;-68
2023/07/24 00:43:47;;;;;;;7.90;4.50;;;17.50;99.90;;;;;;2610405;54;20200;-68
2023/07/24 00:49:37;;;;;;;7.20;4.90;;;17.40;99.90;;;;;;2610219;54;20134;-69
2023/07/24 00:55:25;;;;;;;7.60;4.30;;;17.30;99.90;;;;;;2611789;39;20778;-68
2023/07/24 01:01:14;;;;;;;7.53;5.17;;;17.40;99.90;;;;;;2611094;54;20500;-68
2023/07/24 01:07:01;;;;;;;6.13;5.17;;;17.40;99.90;;;;;;2610978;54;20374;-69
2023/07/24 01:29:23;;;;;;;5.90;4.70;;;17.30;99.90;;;;;;2610757;54;20516;-69
2023/07/24 01:35:13;;;;;;;6.10;5.20;;;17.30;99.90;;;;;;2611014;54;20133;-67
2023/07/24 01:41:02;;;;;;;6.00;4.97;;;17.40;99.90;;;;;;2610857;54;20535;-69
2023/07/24 01:46:50;;;;;;;6.23;5.03;;;17.30;99.90;;;;;;2610080;54;20423;-68
2023/07/24 01:52:37;;;;;;;6.47;4.67;;;17.40;99.90;;;;;;2610819;54;20135;-68
2023/07/24 01:58:25;;;;;;;9.27;4.27;;;17.20;99.90;;;;;;2611449;54;20274;-68
2023/07/24 02:04:13;;;;;;;10.10;3.97;;;17.20;99.90;;;;;;2613173;54;20130;-68
2023/07/24 02:10:01;;;;;;;6.30;4.73;;;17.20;99.90;;;;;;2610228;54;20151;-68
2023/07/24 02:15:50;;;;;;;10.30;4.80;;;17.20;99.90;;;;;;2614532;54;20137;-68
2023/07/24 02:21:37;;;;;;;8.77;4.63;;;17.10;99.90;;;;;;2612616;54;20407;-76
2023/07/24 02:30:48;;;;;;;6.93;4.90;;;17.30;99.90;;;;;;2610685;54;20414;-73
2023/07/24 02:36:36;;;;;;;8.50;5.70;;;17.40;99.90;;;;;;2611106;54;20399;-72
2023/07/24 02:42:24;;;;;;;8.23;5.07;;;17.40;99.90;;;;;;2611551;54;20399;-72
2023/07/24 02:48:12;;;;;;;10.77;6.03;;;17.40;99.90;;;;;;2609849;39;20800;-73
2023/07/24 02:54:00;;;;;;;10.27;6.73;;;17.70;94.50;;;;;;2609188;54;20769;-73
2023/07/24 02:59:47;;;;;;;7.67;5.47;;;17.80;66.90;;;;;;2610201;54;20410;-73
2023/07/24 03:05:35;;;;;;;8.30;5.43;;;17.90;49.50;;;;;;2610094;54;20137;-72
2023/07/24 03:11:23;;;;;;;10.80;6.10;;;17.90;37.50;;;;;;2613160;54;20169;-73
2023/07/24 03:17:11;;;;;;;6.93;5.23;;;17.90;61.40;;;;;;2609368;54;20130;-74
2023/07/24 03:22:58;;;;;;;13.83;7.30;;;17.80;95.50;;;;;;2610607;54;20154;-73
2023/07/24 03:26:12;;;;;;;10.13;6.03;;;17.80;99.90;;;;;;2609326;47;20427;-74
2023/07/24 03:28:38;;;;;;;7.63;4.57;;;17.70;99.90;;;;;;2611139;54;20158;-73
2023/07/24 03:34:25;;;;;;;9.30;5.03;;;17.60;99.90;;;;;;2610433;39;20561;-73
2023/07/24 03:40:13;;;;;;;7.23;5.60;;;17.70;99.90;;;;;;2610661;54;20138;-73
2023/07/24 03:46:01;;;;;;;10.67;5.27;;;17.60;99.90;;;;;;2610107;54;20162;-73
2023/07/24 03:51:48;;;;;;;5.90;4.60;;;17.40;99.90;;;;;;2609492;54;20126;-73
2023/07/24 03:57:36;;;;;;;12.20;6.37;;;17.50;99.90;;;;;;2610503;54;20138;-72
2023/07/24 04:03:24;;;;;;;8.00;6.00;;;17.50;99.90;;;;;;2610531;39;20205;-73
2023/07/24 04:09:14;;;;;;;9.00;6.50;;;17.50;99.90;;;;;;2611239;54;20611;-72
2023/07/24 04:15:02;;;;;;;8.57;5.63;;;17.40;99.90;;;;;;2608720;54;20434;-72
2023/07/24 04:20:50;;;;;;;7.60;5.43;;;17.50;99.90;;;;;;2609104;54;20134;-71
2023/07/24 04:33:04;;;;;;;8.80;6.03;;;;;;;;;;2608443;54;20394;-73
2023/07/24 04:38:52;;;;;;;7.77;5.80;;;17.40;99.90;;;;;;2610856;54;20396;-72
2023/07/24 04:44:40;;;;;;;11.60;7.27;;;17.40;99.90;;;;;;2610819;54;20178;-72
2023/07/24 04:50:27;;;;;;;7.07;5.70;;;17.40;99.90;;;;;;2609746;54;20206;-72
2023/07/24 04:56:15;;;;;;;5.30;4.70;;;17.40;99.90;;;;;;2610548;54;20129;-72
2023/07/24 05:02:03;;;;;;;11.57;6.73;;;17.50;99.90;;;;;;2612284;39;20504;-72
2023/07/24 05:07:50;;;;;;;9.63;5.63;;;17.60;99.90;;;;;;2610915;54;20130;-72
2023/07/24 05:13:38;;;;;;;9.13;5.23;;;17.60;99.90;;;;;;2610828;54;20135;-72
2023/07/24 05:19:26;;;;;;;9.67;5.77;;;17.70;99.90;;;;;;2609815;54;20162;-73
2023/07/24 05:25:13;;;;;;;16.43;5.60;;;17.80;99.90;;;;;;2610871;54;20134;-73
2023/07/24 05:31:03;;;;;;;8.70;5.40;;;17.80;99.90;;;;;;2606938;54;20174;-70
2023/07/24 05:34:18;;;;;;;5.87;5.37;;;17.80;99.90;;;;;;2607266;54;20948;-71
2023/07/24 05:40:06;;;;;;;8.10;5.00;;;17.80;99.90;;;;;;2614023;54;20439;-72
2023/07/24 05:45:55;;;;;;;7.83;5.80;;;17.90;99.90;;;;;;2611756;46;20503;-73
2023/07/24 05:51:43;;;;;;;9.27;5.33;;;18.10;99.90;;;;;;2612859;54;20379;-73
2023/07/24 05:57:30;;;;;;;9.70;5.60;;;18.20;56.10;;;;;;2613277;54;20134;-71
2023/07/24 06:03:18;;;;;;;6.63;4.63;;;18.50;1.10;;;;;;2612039;54;20648;-73
2023/07/24 06:09:06;;;;;;;10.20;5.40;;;18.50;6.00;;;;;;2611357;39;20541;-73
2023/07/24 06:14:53;;;;;;;6.73;5.20;;;18.70;1.00;;;;;;2611970;54;20122;-73
2023/07/24 06:20:41;;;;;;;6.23;4.80;;;19.20;1.00;;;;;;2612805;54;20170;-73
2023/07/24 06:26:29;;;;;;;6.80;4.87;;;19.20;1.00;;;;;;2611259;54;20161;-72
2023/07/24 06:32:28;;;;;;;7.90;4.90;;;19.00;1.00;;;;;;2608223;54;20977;-72
2023/07/24 06:38:16;;;;;;;8.70;5.50;;;18.70;1.00;;;;;;2610229;54;20355;-71
2023/07/24 06:44:03;;;;;;;5.20;4.70;;;18.80;1.00;;;;;;2608350;54;20391;-73
2023/07/24 06:49:50;;;;;;;7.37;5.77;;;19.00;1.00;;;;;;2611689;54;20271;-73
2023/07/24 06:55:37;;;;;;;6.63;5.70;;;19.40;1.00;;;;;;2666584;36;20198;-72
2023/07/24 07:01:24;;;;;;;6.70;4.53;;;19.60;1.00;;;;;;2608056;54;20149;-70
2023/07/24 07:07:12;;;;;;;6.47;5.57;;;19.60;1.00;;;;;;2607977;54;20654;-72
2023/07/24 07:12:59;;;;;;;6.73;6.07;;;19.30;1.00;;;;;;2612515;54;20158;-71
2023/07/24 07:18:50;;;;;;;7.00;5.17;;;19.50;1.00;;;;;;2613032;54;20130;-75
2023/07/24 07:24:37;;;;;;;7.00;5.17;;;19.60;1.00;;;;;;2612573;54;20422;-72
2023/07/24 07:34:18;;;;;;;5.87;4.97;;;19.40;1.00;;;;;;2614070;54;20424;-72
2023/07/24 07:40:06;;;;;;;8.47;5.40;;;19.20;1.00;;;;;;2613665;54;21096;-71
2023/07/24 07:45:56;;;;;;;7.50;4.83;;;19.20;1.00;;;;;;2614885;54;20434;-71
2023/07/24 07:51:44;;;;;;;4.17;3.73;;;19.20;1.00;;;;;;2614623;54;20464;-72
2023/07/24 07:57:36;;;;;;;4.63;3.90;;;19.80;1.00;;;;;;2614200;54;20160;-72
2023/07/24 08:03:23;;;;;;;10.80;4.80;;;20.30;1.00;;;;;;2612466;54;20415;-71
2023/07/24 08:09:11;;;;;;;7.23;4.50;;;20.10;1.00;;;;;;2613723;54;20135;-71
2023/07/24 08:14:59;;;;;;;5.27;4.60;;;20.10;1.00;;;;;;2614789;39;20524;-73
2023/07/24 08:20:46;;;;;;;4.50;4.10;;;20.40;1.00;;;;;;2612272;54;20157;-72
2023/07/24 08:26:34;;;;;;;5.80;3.83;;;20.50;1.00;;;;;;2613276;54;20247;-71
2023/07/24 08:29:14;;;;;;;5.77;4.10;;;20.80;1.00;;;;;;2612628;47;20515;-72
2023/07/24 08:35:49;;;;;;;4.03;3.63;;;20.10;1.00;;;;;;2614069;54;20407;-71
2023/07/24 08:41:39;;;;;;;6.13;5.17;;;18.70;1.00;;;;;;2612641;54;20946;-72
2023/07/24 08:47:28;;;;;;;7.60;4.90;;;18.70;1.00;;;;;;2615057;54;20382;-73
2023/07/24 08:53:18;;;;;;;6.40;4.33;;;19.30;1.00;;;;;;2612409;54;20395;-71
2023/07/24 08:59:05;;;;;;;6.53;5.17;;;20.80;1.00;;;;;;2613448;54;20422;-72
2023/07/24 09:04:53;;;;;;;4.17;3.77;;;20.70;1.00;;;;;;2609170;54;20161;-71
2023/07/24 09:07:57;;;;;;;3.90;3.47;;;21.20;1.00;;;;;;2612094;54;22255;-72
2023/07/24 09:10:26;;;;;;;3.60;3.30;;;21.20;1.00;;;;;;2612067;54;20704;-72
2023/07/24 09:16:26;;;;;;;4.17;3.17;;;22.50;1.00;;;;;;2613424;54;20419;-72
2023/07/24 09:22:15;;;;;;;3.50;3.20;;;22.70;1.00;;;;;;2613510;54;20395;-72
2023/07/24 09:34:47;;;;;;;3.83;3.37;;;21.90;1.00;;;;;;2614091;54;21037;-73
2023/07/24 09:40:43;;;;;;;4.40;3.00;;;21.20;1.00;;;;;;2614092;54;20496;-72
2023/07/24 09:46:32;;;;;;;4.10;3.53;;;21.40;1.00;;;;;;2613283;54;20476;-73
2023/07/24 09:52:20;;;;;;;4.70;3.07;;;20.50;1.00;;;;;;2611452;54;20961;-73
2023/07/24 09:58:09;;;;;;;3.50;3.20;;;20.30;1.00;;;;;;2613864;54;20810;-72
2023/07/24 10:03:58;;;;;;;4.00;3.47;;;19.70;1.00;;;;;;2613255;54;20528;-73
2023/07/24 10:09:46;;;;;;;5.17;3.37;;;20.10;1.00;;;;;;2613601;54;20563;-73
2023/07/24 10:15:35;;;;;;;2.40;2.17;;;20.20;1.00;;;;;;2612602;54;20444;-72
2023/07/24 10:21:28;;;;;;;5.20;3.83;;;20.50;1.00;;;;;;2614360;54;20409;-73
2023/07/24 10:27:15;;;;;;;4.23;3.10;;;20.80;1.00;;;;;;2614529;54;20942;-73
2023/07/24 10:36:25;;;;;;;4.87;3.47;;;21.30;1.00;;;;;;2613426;54;20432;-72
2023/07/24 10:42:13;;;;;;;4.17;3.57;;;22.20;1.00;;;;;;2614272;39;20259;-73
2023/07/24 10:48:01;;;;;;;3.83;3.43;;;21.80;1.00;;;;;;2613623;54;20407;-73
2023/07/24 10:53:49;;;;;;;4.13;3.67;;;21.20;1.00;;;;;;2610709;54;20274;-72
2023/07/24 10:59:39;;;;;;;5.03;4.63;;;21.40;1.00;;;;;;2612306;54;20414;-73
2023/07/24 11:05:27;;;;;;;4.40;4.00;;;21.30;1.00;;;;;;2613100;54;20463;-73
2023/07/24 11:11:15;;;;;;;6.53;4.63;;;20.90;1.00;;;;;;2614146;54;20370;-73
2023/07/24 11:17:03;;;;;;;4.90;4.10;;;21.10;1.00;;;;;;2612526;54;20464;-73
2023/07/24 11:22:51;;;;;;;4.57;3.90;;;20.80;1.00;;;;;;2612853;54;20162;-73
2023/07/24 11:28:40;;;;;;;5.90;4.63;;;19.90;1.00;;;;;;2612289;54;20966;-72
2023/07/24 11:31:45;;;;;;;4.00;3.60;;;19.70;1.00;;;;;;2611790;47;20428;-72
2023/07/24 11:37:51;;;;;;;7.30;4.70;;;19.70;1.00;;;;;;2612501;39;20943;-72
2023/07/24 11:43:47;;;;;;;4.20;3.10;;;19.40;1.00;;;;;;2612403;54;20367;-72
2023/07/24 11:49:34;;;;;;;9.87;6.10;;;18.80;1.00;;;;;;2612621;54;20960;-73
2023/07/24 12:01:55;;;;;;;16.53;4.00;;;17.30;99.90;;;;;;2608881;54;20437;-74
2023/07/24 12:07:47;;;;;;;3.40;2.90;;;17.00;99.90;;;;;;2612046;54;20749;-73
2023/07/24 12:13:33;;;;;;;5.00;2.30;;;16.20;99.90;;;;;;2607618;54;20413;-72
2023/07/24 12:19:21;;;;;;;5.73;2.13;;;15.30;99.90;;;;;;2610824;54;20137;-72
2023/07/24 12:25:08;;;;;;;4.77;2.47;;;15.30;99.90;;;;;;2612477;54;20166;-73
2023/07/24 12:30:56;;;;;;;2.60;1.93;;;15.30;99.90;;;;;;2613364;54;20174;-72
2023/07/24 12:40:06;;;;;;;3.97;2.03;;;15.60;99.90;;;;;;2614130;54;20415;-72
2023/07/24 12:45:53;;;;;;;5.57;2.50;;;16.20;98.90;;;;;;2613944;54;20969;-72
2023/07/24 12:51:41;;;;;;;3.80;3.00;;;16.80;15.30;;;;;;2613810;54;20134;-72
2023/07/24 12:57:29;;;;;;;2.60;2.00;;;17.10;1.00;;;;;;2614084;54;20167;-72
2023/07/24 13:03:17;;;;;;;2.27;1.80;;;17.90;1.00;;;;;;2614302;54;20246;-72
2023/07/24 13:09:05;;;;;;;2.43;2.23;;;18.50;1.00;;;;;;2613456;54;20134;-72
2023/07/24 13:14:53;;;;;;;6.93;3.10;;;18.70;1.00;;;;;;2613872;54;20547;-73
2023/07/24 13:20:41;;;;;;;3.80;3.50;;;20.00;1.00;;;;;;2614298;54;20200;-73
2023/07/24 13:26:28;;;;;;;6.77;4.90;;;21.00;1.00;;;;;;2612557;54;20152;-74
2023/07/24 13:32:16;;;;;;;4.13;3.73;;;21.00;1.00;;;;;;2613222;54;20163;-72
2023/07/24 13:35:35;;;;;;;3.63;3.33;;;20.30;1.00;;;;;;2613822;54;21080;-73
2023/07/24 13:38:00;;;;;;;3.90;3.60;;;20.80;1.00;;;;;;2613848;54;20170;-73
2023/07/24 13:43:48;;;;;;;4.63;4.33;;;21.70;1.00;;;;;;2613470;54;20158;-73
2023/07/24 13:49:36;;;;;;;4.07;3.77;;;22.10;1.00;;;;;;2613997;54;20150;-75
2023/07/24 13:55:23;;;;;;;4.47;4.07;;;23.20;1.00;;;;;;2609290;54;20162;-73
2023/07/24 14:01:11;;;;;;;4.60;4.23;;;23.90;1.00;;;;;;2610260;54;20127;-74
2023/07/24 14:06:59;;;;;;;4.93;4.53;;;23.10;1.00;;;;;;2610851;54;20151;-72
2023/07/24 14:12:47;;;;;;;5.23;4.73;;;22.60;1.00;;;;;;2613192;54;20170;-73
2023/07/24 14:18:35;;;;;;;4.67;4.27;;;22.40;1.00;;;;;;2613857;54;20949;-74
2023/07/24 14:24:23;;;;;;;4.53;4.13;;;22.30;1.00;;;;;;2648454;36;20213;-73
2023/07/24 14:30:11;;;;;;;5.10;4.70;;;22.50;1.00;;;;;;2613915;54;20183;-74
2023/07/24 14:40:05;;;;;;;4.73;4.20;;;22.30;1.00;;;;;;2614035;54;20460;-73
2023/07/24 14:45:52;;;;;;;6.07;3.80;;;22.30;1.00;;;;;;2614572;54;20526;-73
2023/07/24 14:51:40;;;;;;;5.03;4.23;;;22.10;1.00;;;;;;2614498;54;20175;-74
2023/07/24 14:57:28;;;;;;;4.80;4.00;;;21.20;1.00;;;;;;2614443;39;21287;-74
2023/07/24 15:03:15;;;;;;;3.80;3.50;;;20.70;1.00;;;;;;2611615;54;20167;-73
2023/07/24 15:09:03;;;;;;;6.37;4.03;;;20.20;1.00;;;;;;2612005;54;20150;-72
2023/07/24 15:14:51;;;;;;;11.33;4.17;;;21.00;1.00;;;;;;2613866;39;20534;-70
2023/07/24 15:17:57;;;;;;;3.63;3.33;;;21.60;1.00;;;;;;2610967;54;20419;-69
2023/07/24 15:20:22;;;;;;;4.90;4.47;;;22.10;1.00;;;;;;2608966;46;20463;-68
2023/07/24 15:26:10;;;;;;;5.93;3.93;;;21.70;1.00;;;;;;2610357;54;20163;-68
2023/07/24 15:31:58;;;;;;;3.80;3.20;;;20.90;1.00;;;;;;2609145;54;20154;-69
2023/07/24 15:37:45;;;;;;;3.60;3.00;;;21.80;1.00;;;;;;2613756;54;20226;-69
2023/07/24 15:43:33;;;;;;;5.23;3.60;;;22.10;1.00;;;;;;2609814;54;20154;-69
2023/07/24 15:49:20;;;;;;;3.40;3.10;;;22.20;1.00;;;;;;2609157;54;21332;-68
2023/07/24 15:55:08;;;;;;;3.93;3.43;;;21.30;1.00;;;;;;2613586;54;20151;-69
2023/07/24 16:00:56;;;;;;;5.10;4.70;;;20.70;1.00;;;;;;2614274;54;20159;-70
2023/07/24 16:06:44;;;;;;;4.70;4.23;;;20.50;1.00;;;;;;2613816;54;20432;-69
2023/07/24 16:12:32;;;;;;;6.43;5.80;;;20.10;1.00;;;;;;2613982;54;20118;-70
2023/07/24 16:18:23;;;;;;;5.63;5.00;;;20.10;1.00;;;;;;2613206;54;20154;-69
2023/07/24 16:24:11;;;;;;;7.33;6.63;;;20.10;1.00;;;;;;2613679;54;20395;-69
2023/07/24 16:29:59;;;;;;;6.37;5.87;;;20.00;1.00;;;;;;2614203;31;21409;-70
2023/07/24 16:42:30;;;;;;;8.10;7.30;;;19.90;1.00;;;;;;2611858;54;20415;-70
2023/07/24 16:48:18;;;;;;;9.13;6.60;;;19.90;1.00;;;;;;2613161;54;20703;-69
2023/07/24 16:54:06;;;;;;;8.20;7.50;;;20.40;1.00;;;;;;2613255;54;20152;-68
2023/07/24 16:59:54;;;;;;;7.30;6.60;;;20.00;1.00;;;;;;2613250;54;20138;-69
2023/07/24 17:05:42;;;;;;;6.60;6.00;;;19.90;1.00;;;;;;2613954;54;20452;-69
2023/07/24 17:11:29;;;;;;;6.03;5.53;;;19.70;1.00;;;;;;2613310;54;20578;-69
2023/07/24 17:17:17;;;;;;;6.67;6.07;;;19.70;1.00;;;;;;2614138;54;20131;-68
2023/07/24 17:23:05;;;;;;;8.03;6.50;;;19.40;1.00;;;;;;2614582;39;20242;-68
2023/07/24 17:28:53;;;;;;;7.13;6.53;;;19.40;1.00;;;;;;2613641;54;20527;-70
2023/07/24 17:34:41;;;;;;;9.07;8.13;;;19.00;1.00;;;;;;2613870;54;20164;-69
2023/07/24 17:40:29;;;;;;;7.17;6.57;;;18.60;1.00;;;;;;2611415;54;20617;-70
2023/07/24 17:46:17;;;;;;;6.17;5.60;;;18.20;1.00;;;;;;2612171;54;20246;-67
2023/07/24 17:52:05;;;;;;;6.57;6.07;;;18.20;1.00;;;;;;2612591;54;20616;-71
2023/07/24 17:57:53;;;;;;;6.70;6.10;;;18.00;1.00;;;;;;2612866;39;20765;-70
2023/07/24 18:03:41;;;;;;;7.67;6.87;;;18.00;1.00;;;;;;2613628;39;20622;-70
2023/07/24 18:09:29;;;;;;;6.47;5.93;;;17.90;1.00;;;;;;2614081;54;20178;-69
2023/07/24 18:15:16;;;;;;;7.73;7.13;;;17.70;1.00;;;;;;2614683;54;20133;-70
2023/07/24 18:21:04;;;;;;;7.57;6.80;;;17.50;1.00;;;;;;2614186;54;20146;-69
2023/07/24 18:26:52;;;;;;;10.70;8.40;;;17.30;1.00;;;;;;2611496;54;20391;-69
2023/07/24 18:32:24;;;;;;;7.13;6.43;;;;;;;;;;2612217;54;20652;-71
2023/07/24 18:37:53;;;;;;;7.43;6.73;;;;;;;;;;2613239;39;21059;-71
2023/07/24 18:43:23;;;;;;;7.40;5.43;;;;;;;;;;2613026;39;20771;-71
2023/07/24 18:48:53;;;;;;;6.90;6.20;;;;;;;;;;2609914;54;20435;-70
2023/07/24 18:54:23;;;;;;;8.50;6.20;;;;;;;;;;2613660;54;20395;-69
2023/07/24 18:59:52;;;;;;;8.30;6.30;;;;;;;;;;2613613;54;20967;-70
2023/07/24 19:05:23;;;;;;;5.33;4.83;;;;;;;;;;2613866;54;20411;-70
2023/07/24 19:10:53;;;;;;;6.07;5.17;;;;;;;;;;2613332;54;20390;-69
2023/07/24 19:16:23;;;;;;;10.60;6.87;;;;;;;;;;2612895;39;20794;-70
2023/07/24 19:21:53;;;;;;;9.93;7.60;;;;;;;;;;2613602;46;20438;-71
2023/07/24 19:27:23;;;;;;;8.07;6.80;;;;;;;;;;2612925;54;20384;-70
2023/07/24 19:32:52;;;;;;;8.23;6.77;;;;;;;;;;2630625;36;20573;-70
2023/07/24 19:38:41;;;;;;;8.93;7.43;;;;;;;;;;2610508;54;20419;-70
2023/07/24 19:44:10;;;;;;;11.93;7.23;;;;;;;;;;2626891;36;20505;-80
2023/07/24 19:49:40;;;;;;;9.87;7.70;;;;;;;;;;2609345;39;20928;-81
2023/07/24 19:55:09;;;;;;;10.40;9.23;;;;;;;;;;2611079;39;20826;-80
2023/07/24 20:00:38;;;;;;;13.10;11.80;;;16.60;1.00;;;;;;2611415;54;20347;-80
2023/07/24 20:06:25;;;;;;;23.07;17.00;;;16.30;1.00;;;;;;2609439;54;20162;-75
2023/07/24 20:12:12;;;;;;;16.17;14.57;;;15.70;99.90;;;;;;2611913;47;20159;-75
2023/07/24 20:18:00;;;;;;;15.93;14.40;;;15.60;99.90;;;;;;2613602;54;21801;-77
2023/07/24 20:23:48;;;;;;;14.83;12.80;;;15.50;99.90;;;;;;2612071;54;20208;-76
2023/07/24 20:29:17;;;;;;;13.60;12.20;;;;;;;;;;2612531;54;20123;-77
2023/07/24 20:34:47;;;;;;;9.57;8.57;;;;;;;;;;2612218;54;20404;-78
2023/07/24 20:40:35;;;;;;;12.07;9.00;;;;;;;;;;2613908;54;20348;-78
2023/07/24 20:46:23;;;;;;;11.37;8.60;;;15.50;99.90;;;;;;2614044;54;20437;-77
2023/07/24 20:52:10;;;;;;;11.97;10.60;;;15.60;99.90;;;;;;2613880;54;20123;-78
2023/07/24 20:57:58;;;;;;;11.17;10.00;;;;;;;;;;2608414;54;20138;-78
2023/07/24 21:03:46;;;;;;;16.03;9.47;;;15.60;99.90;;;;;;2611586;54;20395;-78
2023/07/24 21:09:34;;;;;;;11.50;8.63;;;15.60;99.90;;;;;;2613741;54;20122;-77
2023/07/24 21:15:22;;;;;;;19.73;9.17;;;15.50;99.90;;;;;;2612079;54;20127;-78
2023/07/24 21:21:09;;;;;;;8.97;7.10;;;15.50;99.90;;;;;;2610448;54;20154;-77
2023/07/24 21:26:57;;;;;;;9.33;5.83;;;15.40;99.90;;;;;;2611103;54;20132;-77
2023/07/24 21:32:26;;;;;;;7.90;5.80;;;15.40;99.90;;;;;;2611159;54;20126;-77
2023/07/24 21:37:56;;;;;;;9.63;5.60;;;15.20;99.90;;;;;;2611200;54;20182;-77
2023/07/24 21:43:43;;;;;;;6.00;5.33;;;15.20;99.90;;;;;;2609412;54;20143;-78
2023/07/24 21:49:31;;;;;;;8.77;4.60;;;15.10;99.90;;;;;;2608328;54;20232;-79
2023/07/24 21:55:18;;;;;;;8.50;5.30;;;15.00;99.90;;;;;;2610124;54;20122;-77
2023/07/24 22:01:06;;;;;;;7.83;4.40;;;14.90;99.90;;;;;;2608525;54;20126;-78
2023/07/24 22:04:10;;;;;;;6.40;4.83;;;14.90;99.90;;;;;;2607234;54;20427;-78
2023/07/24 22:06:35;;;;;;;6.73;4.77;;;14.90;99.90;;;;;;2613133;54;20546;-79
2023/07/24 22:12:23;;;;;;;6.40;4.67;;;14.80;99.90;;;;;;2609452;54;20130;-78
2023/07/24 22:18:11;;;;;;;6.33;4.00;;;14.70;99.90;;;;;;2608855;54;20230;-79
2023/07/24 22:23:59;;;;;;;5.40;4.10;;;14.70;99.90;;;;;;2610454;54;20150;-80
2023/07/24 22:29:28;;;;;;;9.60;4.60;;;14.70;99.90;;;;;;2608783;54;20137;-77
2023/07/24 22:35:16;;;;;;;8.87;4.93;;;14.70;99.90;;;;;;2608296;54;20660;-78
2023/07/24 22:41:11;;;;;;;4.70;4.30;;;14.70;99.90;;;;;;2608384;54;20169;-79
2023/07/24 22:44:27;;;;;;;4.90;4.40;;;14.60;99.90;;;;;;2610974;54;20403;-79
2023/07/24 22:50:14;;;;;;;11.40;4.80;;;14.60;99.90;;;;;;2608740;54;20544;-79
2023/07/24 22:56:07;;;;;;;5.07;4.67;;;14.60;99.90;;;;;;2610712;39;21128;-79
2023/07/24 23:01:57;;;;;;;12.30;4.67;;;14.50;99.90;;;;;;2610283;46;20443;-80
2023/07/24 23:07:44;;;;;;;6.97;4.37;;;14.40;99.90;;;;;;2614204;54;20359;-79
2023/07/24 23:13:32;;;;;;;7.90;4.50;;;14.40;99.90;;;;;;2610423;54;20164;-78
2023/07/24 23:19:20;;;;;;;6.50;4.70;;;14.20;99.90;;;;;;2610845;54;20155;-79
2023/07/24 23:25:08;;;;;;;9.67;5.43;;;14.20;99.90;;;;;;2610460;54;20119;-79
2023/07/24 23:30:56;;;;;;;7.23;5.40;;;14.10;99.90;;;;;;2609650;54;20415;-79
2023/07/24 23:36:44;;;;;;;9.80;5.67;;;14.10;99.90;;;;;;2610367;54;20143;-79
2023/07/24 23:39:57;;;;;;;9.57;5.53;;;14.00;99.90;;;;;;2609193;31;20950;-79
2023/07/24 23:42:22;;;;;;;7.93;6.30;;;14.10;99.90;;;;;;2606609;54;22391;-78
2023/07/24 23:48:10;;;;;;;9.97;5.87;;;14.00;99.90;;;;;;2609805;54;22208;-79
2023/07/24 23:53:58;;;;;;;9.00;5.97;;;14.10;99.90;;;;;;2609174;54;20135;-78
2023/07/24 23:59:45;;;;;;;9.20;6.20;;;14.00;99.90;;;;;;2608272;54;20217;-78
